RYR0599 LEIB-LEBL
Flight info
| Callsign | RYR0599 |
|---|---|
| Flight time | 0h 39m |
| Altitude | 24000 |
| Route | EPAMA N856 MARTA |
| Aircraft | B38M/M-SDE1FGHILORVWXY/HB1 |
Departure
| Time | 2026-05-05 11:15 |
|---|---|
| Airport | Ibiza Airport (LEIB) |
Arrival
| Time | 2026-05-05 11:54 |
|---|---|
| Airport | Josep Tarradellas Barcelona-El Prat Airport (LEBL) |
| Time | Latitude | Longitude | Altitude | Speed | Heading |
|---|---|---|---|---|---|
| 2026-05-05 10:56 | 38.87575 | 1.37304 | 50 ft | 0 kts | 332° |
| 2026-05-05 11:05 | 38.87555 | 1.37318 | 49 ft | 4 kts | 334° |
| 2026-05-05 11:05 | 38.87532 | 1.37332 | 46 ft | 4 kts | 335° |
| 2026-05-05 11:05 | 38.87509 | 1.37344 | 44 ft | 3 kts | 343° |
| 2026-05-05 11:06 | 38.87492 | 1.37347 | 43 ft | 2 kts | 23° |
| 2026-05-05 11:06 | 38.87483 | 1.37338 | 45 ft | 2 kts | 54° |
| 2026-05-05 11:06 | 38.87478 | 1.37326 | 43 ft | 1 kts | 60° |
| 2026-05-05 11:09 | 38.87486 | 1.37346 | 44 ft | 8 kts | 60° |
| 2026-05-05 11:10 | 38.87514 | 1.37411 | 46 ft | 8 kts | 62° |
| 2026-05-05 11:10 | 38.87543 | 1.37485 | 47 ft | 10 kts | 63° |
| 2026-05-05 11:10 | 38.87575 | 1.37563 | 46 ft | 8 kts | 62° |
| 2026-05-05 11:10 | 38.87603 | 1.37629 | 42 ft | 9 kts | 61° |
| 2026-05-05 11:11 | 38.87638 | 1.37710 | 43 ft | 12 kts | 60° |
| 2026-05-05 11:11 | 38.87674 | 1.37798 | 41 ft | 12 kts | 63° |
| 2026-05-05 11:11 | 38.87718 | 1.37904 | 43 ft | 15 kts | 62° |
| 2026-05-05 11:11 | 38.87766 | 1.38017 | 40 ft | 16 kts | 61° |
| 2026-05-05 11:12 | 38.87817 | 1.38145 | 37 ft | 14 kts | 61° |
| 2026-05-05 11:12 | 38.87851 | 1.38224 | 36 ft | 14 kts | 62° |
| 2026-05-05 11:12 | 38.87914 | 1.38375 | 35 ft | 14 kts | 62° |
| 2026-05-05 11:12 | 38.87943 | 1.38447 | 35 ft | 13 kts | 63° |
| 2026-05-05 11:13 | 38.87993 | 1.38588 | 35 ft | 13 kts | 82° |
| 2026-05-05 11:13 | 38.87946 | 1.38669 | 33 ft | 12 kts | 151° |
| 2026-05-05 11:13 | 38.87878 | 1.38701 | 31 ft | 9 kts | 184° |
| 2026-05-05 11:13 | 38.87852 | 1.38679 | 30 ft | 5 kts | 234° |
| 2026-05-05 11:14 | 38.87848 | 1.38671 | 30 ft | 0 kts | 241° |
| 2026-05-05 11:14 | 38.87818 | 1.38597 | 31 ft | 37 kts | 242° |
| 2026-05-05 11:14 | 38.87569 | 1.37990 | 34 ft | 115 kts | 242° |
| 2026-05-05 11:14 | 38.87102 | 1.36877 | 333 ft | 154 kts | 242° |
| 2026-05-05 11:15 | 38.86593 | 1.35591 | 1119 ft | 165 kts | 244° |
| 2026-05-05 11:15 | 38.86083 | 1.34264 | 2052 ft | 169 kts | 245° |
| 2026-05-05 11:15 | 38.85541 | 1.32867 | 2777 ft | 186 kts | 245° |
| 2026-05-05 11:15 | 38.84935 | 1.31304 | 3505 ft | 205 kts | 245° |
| 2026-05-05 11:16 | 38.84269 | 1.29585 | 4344 ft | 218 kts | 244° |
| 2026-05-05 11:16 | 38.83605 | 1.27839 | 5472 ft | 219 kts | 248° |
| 2026-05-05 11:16 | 38.83413 | 1.25896 | 6376 ft | 233 kts | 277° |
| 2026-05-05 11:16 | 38.84109 | 1.23916 | 7165 ft | 254 kts | 308° |
| 2026-05-05 11:17 | 38.85507 | 1.22505 | 8271 ft | 257 kts | 323° |
| 2026-05-05 11:17 | 38.86965 | 1.21169 | 9341 ft | 260 kts | 320° |
| 2026-05-05 11:17 | 38.88440 | 1.19784 | 10323 ft | 264 kts | 319° |
| 2026-05-05 11:17 | 38.89929 | 1.18391 | 11273 ft | 267 kts | 319° |
| 2026-05-05 11:18 | 38.91455 | 1.16991 | 12164 ft | 274 kts | 323° |
| 2026-05-05 11:18 | 38.93291 | 1.16121 | 12788 ft | 301 kts | 348° |
| 2026-05-05 11:18 | 38.95493 | 1.16351 | 13322 ft | 329 kts | 12° |
| 2026-05-05 11:18 | 38.97718 | 1.17164 | 13902 ft | 343 kts | 11° |
| 2026-05-05 11:19 | 39.00091 | 1.17965 | 14491 ft | 354 kts | 10° |
| 2026-05-05 11:19 | 39.02453 | 1.18752 | 15331 ft | 355 kts | 10° |
| 2026-05-05 11:19 | 39.04905 | 1.19565 | 16079 ft | 362 kts | 9° |
| 2026-05-05 11:19 | 39.07362 | 1.20378 | 16822 ft | 367 kts | 9° |
| 2026-05-05 11:20 | 39.09839 | 1.21199 | 17551 ft | 372 kts | 9° |
| 2026-05-05 11:20 | 39.12335 | 1.22026 | 18259 ft | 377 kts | 9° |
| 2026-05-05 11:20 | 39.14891 | 1.22874 | 18859 ft | 382 kts | 9° |
| 2026-05-05 11:20 | 39.17479 | 1.23733 | 19474 ft | 386 kts | 8° |
| 2026-05-05 11:21 | 39.20098 | 1.24602 | 20067 ft | 391 kts | 8° |
| 2026-05-05 11:21 | 39.22736 | 1.25479 | 20669 ft | 395 kts | 8° |
| 2026-05-05 11:21 | 39.25416 | 1.26369 | 21258 ft | 399 kts | 8° |
| 2026-05-05 11:21 | 39.28116 | 1.27268 | 21836 ft | 403 kts | 8° |
| 2026-05-05 11:22 | 39.30849 | 1.28178 | 22414 ft | 407 kts | 8° |
| 2026-05-05 11:22 | 39.33587 | 1.29091 | 23113 ft | 407 kts | 8° |
| 2026-05-05 11:22 | 39.36335 | 1.30007 | 23764 ft | 407 kts | 8° |
| 2026-05-05 11:22 | 39.39083 | 1.30924 | 23920 ft | 407 kts | 8° |
| 2026-05-05 11:23 | 39.41813 | 1.31836 | 23941 ft | 406 kts | 8° |
| 2026-05-05 11:23 | 39.44548 | 1.32752 | 23937 ft | 405 kts | 8° |
| 2026-05-05 11:23 | 39.47275 | 1.33664 | 23938 ft | 405 kts | 8° |
| 2026-05-05 11:23 | 39.50004 | 1.34578 | 23938 ft | 405 kts | 8° |
| 2026-05-05 11:24 | 39.52734 | 1.35493 | 23935 ft | 405 kts | 8° |
| 2026-05-05 11:24 | 39.55464 | 1.36408 | 23939 ft | 405 kts | 8° |
| 2026-05-05 11:24 | 39.58200 | 1.37326 | 23939 ft | 405 kts | 7° |
| 2026-05-05 11:24 | 39.60931 | 1.37800 | 23926 ft | 389 kts | 349° |
| 2026-05-05 11:25 | 39.63609 | 1.37511 | 23930 ft | 387 kts | 347° |
| 2026-05-05 11:25 | 39.66288 | 1.37205 | 23937 ft | 387 kts | 346° |
| 2026-05-05 11:25 | 39.68972 | 1.36875 | 23939 ft | 386 kts | 346° |
| 2026-05-05 11:25 | 39.71649 | 1.36531 | 23940 ft | 386 kts | 346° |
| 2026-05-05 11:26 | 39.74315 | 1.36181 | 23946 ft | 386 kts | 346° |
| 2026-05-05 11:26 | 39.76995 | 1.35826 | 23942 ft | 386 kts | 345° |
| 2026-05-05 11:26 | 39.79668 | 1.35471 | 23942 ft | 386 kts | 345° |
| 2026-05-05 11:26 | 39.82342 | 1.35116 | 23944 ft | 387 kts | 345° |
| 2026-05-05 11:27 | 39.85020 | 1.34759 | 23949 ft | 387 kts | 345° |
| 2026-05-05 11:27 | 39.87701 | 1.34402 | 23947 ft | 387 kts | 345° |
| 2026-05-05 11:27 | 39.90343 | 1.34050 | 23947 ft | 387 kts | 345° |
| 2026-05-05 11:27 | 39.93051 | 1.33688 | 23949 ft | 387 kts | 345° |
| 2026-05-05 11:28 | 39.95737 | 1.33329 | 23951 ft | 387 kts | 345° |
| 2026-05-05 11:28 | 39.98383 | 1.32976 | 23947 ft | 387 kts | 345° |
| 2026-05-05 11:28 | 40.01067 | 1.32617 | 23950 ft | 388 kts | 345° |
| 2026-05-05 11:28 | 40.03777 | 1.32254 | 23948 ft | 388 kts | 345° |
| 2026-05-05 11:29 | 40.06437 | 1.31898 | 23949 ft | 388 kts | 345° |
| 2026-05-05 11:29 | 40.09151 | 1.31534 | 23947 ft | 388 kts | 345° |
| 2026-05-05 11:29 | 40.11808 | 1.31178 | 23940 ft | 389 kts | 345° |
| 2026-05-05 11:29 | 40.14499 | 1.30817 | 23948 ft | 389 kts | 345° |
| 2026-05-05 11:30 | 40.17230 | 1.30449 | 23949 ft | 389 kts | 345° |
| 2026-05-05 11:30 | 40.19892 | 1.30091 | 23950 ft | 390 kts | 345° |
| 2026-05-05 11:30 | 40.22624 | 1.29724 | 23949 ft | 390 kts | 345° |
| 2026-05-05 11:30 | 40.25299 | 1.29363 | 23952 ft | 390 kts | 345° |
| 2026-05-05 11:31 | 40.27998 | 1.28999 | 23951 ft | 389 kts | 345° |
| 2026-05-05 11:31 | 40.30693 | 1.28655 | 23721 ft | 385 kts | 348° |
| 2026-05-05 11:31 | 40.33357 | 1.28985 | 23521 ft | 393 kts | 10° |
| 2026-05-05 11:31 | 40.35776 | 1.30461 | 23871 ft | 376 kts | 31° |
| 2026-05-05 11:32 | 40.37671 | 1.32710 | 24045 ft | 367 kts | 49° |
| 2026-05-05 11:32 | 40.39255 | 1.35430 | 24000 ft | 384 kts | 53° |
| 2026-05-05 11:32 | 40.40852 | 1.38315 | 23922 ft | 399 kts | 54° |
| 2026-05-05 11:32 | 40.42477 | 1.41319 | 23826 ft | 405 kts | 54° |
| 2026-05-05 11:33 | 40.44103 | 1.44368 | 23676 ft | 409 kts | 55° |
| 2026-05-05 11:33 | 40.45719 | 1.47424 | 23319 ft | 408 kts | 55° |
| 2026-05-05 11:33 | 40.47328 | 1.50476 | 22880 ft | 407 kts | 55° |
| 2026-05-05 11:33 | 40.48940 | 1.53541 | 22449 ft | 407 kts | 55° |
| 2026-05-05 11:34 | 40.50544 | 1.56594 | 22028 ft | 405 kts | 55° |
| 2026-05-05 11:34 | 40.52135 | 1.59627 | 21598 ft | 403 kts | 55° |
| 2026-05-05 11:34 | 40.53726 | 1.62662 | 21125 ft | 402 kts | 55° |
| 2026-05-05 11:34 | 40.55322 | 1.65710 | 20521 ft | 406 kts | 55° |
| 2026-05-05 11:35 | 40.56923 | 1.68771 | 19942 ft | 408 kts | 55° |
| 2026-05-05 11:35 | 40.58539 | 1.71861 | 19377 ft | 410 kts | 55° |
| 2026-05-05 11:35 | 40.60129 | 1.74907 | 18853 ft | 400 kts | 55° |
| 2026-05-05 11:35 | 40.61683 | 1.77887 | 18339 ft | 391 kts | 54° |
| 2026-05-05 11:36 | 40.63205 | 1.80808 | 17756 ft | 382 kts | 55° |
| 2026-05-05 11:36 | 40.64696 | 1.83674 | 17181 ft | 374 kts | 55° |
| 2026-05-05 11:36 | 40.66146 | 1.86462 | 16610 ft | 367 kts | 55° |
| 2026-05-05 11:36 | 40.67578 | 1.89214 | 16050 ft | 360 kts | 56° |
| 2026-05-05 11:37 | 40.69054 | 1.91822 | 15487 ft | 352 kts | 44° |
| 2026-05-05 11:37 | 40.71000 | 1.93671 | 14955 ft | 342 kts | 25° |
| 2026-05-05 11:37 | 40.73045 | 1.95138 | 14433 ft | 336 kts | 27° |
| 2026-05-05 11:37 | 40.75101 | 1.96630 | 13912 ft | 331 kts | 27° |
| 2026-05-05 11:38 | 40.77081 | 1.98056 | 13372 ft | 326 kts | 27° |
| 2026-05-05 11:38 | 40.79046 | 1.99465 | 12889 ft | 318 kts | 27° |
| 2026-05-05 11:38 | 40.80974 | 2.00847 | 12413 ft | 311 kts | 27° |
| 2026-05-05 11:38 | 40.82855 | 2.02195 | 11955 ft | 305 kts | 27° |
| 2026-05-05 11:39 | 40.84712 | 2.03528 | 11480 ft | 301 kts | 27° |
| 2026-05-05 11:39 | 40.86584 | 2.04870 | 11021 ft | 304 kts | 27° |
| 2026-05-05 11:39 | 40.88446 | 2.06208 | 10566 ft | 307 kts | 27° |
| 2026-05-05 11:39 | 40.90309 | 2.07546 | 10123 ft | 309 kts | 27° |
| 2026-05-05 11:40 | 40.92192 | 2.08911 | 9667 ft | 310 kts | 28° |
| 2026-05-05 11:40 | 40.94080 | 2.10332 | 9194 ft | 312 kts | 28° |
| 2026-05-05 11:40 | 40.95958 | 2.11746 | 8712 ft | 312 kts | 28° |
| 2026-05-05 11:40 | 40.97863 | 2.13177 | 8342 ft | 307 kts | 28° |
| 2026-05-05 11:41 | 40.99655 | 2.14524 | 8047 ft | 293 kts | 28° |
| 2026-05-05 11:41 | 41.01408 | 2.15842 | 7747 ft | 280 kts | 28° |
| 2026-05-05 11:41 | 41.03052 | 2.17079 | 7439 ft | 269 kts | 28° |
| 2026-05-05 11:41 | 41.04646 | 2.18279 | 7151 ft | 260 kts | 28° |
| 2026-05-05 11:42 | 41.06187 | 2.19439 | 6849 ft | 251 kts | 28° |
| 2026-05-05 11:42 | 41.07689 | 2.20570 | 6544 ft | 243 kts | 28° |
| 2026-05-05 11:42 | 41.09139 | 2.21664 | 6240 ft | 238 kts | 28° |
| 2026-05-05 11:42 | 41.10575 | 2.22746 | 5917 ft | 238 kts | 28° |
| 2026-05-05 11:43 | 41.12007 | 2.23826 | 5600 ft | 237 kts | 29° |
| 2026-05-05 11:43 | 41.13430 | 2.24902 | 5498 ft | 234 kts | 30° |
| 2026-05-05 11:43 | 41.14822 | 2.26044 | 5466 ft | 235 kts | 32° |
| 2026-05-05 11:43 | 41.16202 | 2.27205 | 5469 ft | 235 kts | 32° |
| 2026-05-05 11:44 | 41.17577 | 2.28365 | 5564 ft | 235 kts | 32° |
| 2026-05-05 11:44 | 41.18957 | 2.29551 | 5654 ft | 238 kts | 32° |
| 2026-05-05 11:44 | 41.20283 | 2.30912 | 5423 ft | 246 kts | 43° |
| 2026-05-05 11:44 | 41.21482 | 2.32576 | 5002 ft | 251 kts | 50° |
| 2026-05-05 11:45 | 41.22601 | 2.34339 | 4679 ft | 244 kts | 51° |
| 2026-05-05 11:45 | 41.23652 | 2.36022 | 4496 ft | 233 kts | 51° |
| 2026-05-05 11:45 | 41.24689 | 2.37652 | 4263 ft | 229 kts | 46° |
| 2026-05-05 11:45 | 41.25860 | 2.39064 | 4023 ft | 226 kts | 38° |
| 2026-05-05 11:46 | 41.27167 | 2.40210 | 3785 ft | 223 kts | 27° |
| 2026-05-05 11:46 | 41.28556 | 2.41080 | 3555 ft | 220 kts | 21° |
| 2026-05-05 11:46 | 41.29962 | 2.41848 | 3317 ft | 217 kts | 21° |
| 2026-05-05 11:46 | 41.31345 | 2.42609 | 3080 ft | 214 kts | 21° |
| 2026-05-05 11:47 | 41.32714 | 2.43338 | 2828 ft | 210 kts | 16° |
| 2026-05-05 11:47 | 41.34126 | 2.43560 | 2568 ft | 203 kts | 348° |
| 2026-05-05 11:47 | 41.35464 | 2.43083 | 2385 ft | 197 kts | 340° |
| 2026-05-05 11:47 | 41.36759 | 2.42532 | 2285 ft | 196 kts | 340° |
| 2026-05-05 11:48 | 41.38643 | 2.40300 | 2330 ft | 188 kts | 289° |
| 2026-05-05 11:48 | 41.38849 | 2.38578 | 2310 ft | 188 kts | 268° |
| 2026-05-05 11:48 | 41.38824 | 2.36831 | 2308 ft | 189 kts | 266° |
| 2026-05-05 11:49 | 41.38790 | 2.35103 | 2294 ft | 189 kts | 265° |
| 2026-05-05 11:49 | 41.38504 | 2.33424 | 2297 ft | 186 kts | 248° |
| 2026-05-05 11:49 | 41.38000 | 2.31807 | 2337 ft | 187 kts | 246° |
| 2026-05-05 11:49 | 41.37481 | 2.30211 | 2307 ft | 187 kts | 246° |
| 2026-05-05 11:50 | 41.36972 | 2.28650 | 2288 ft | 187 kts | 246° |
| 2026-05-05 11:50 | 41.36445 | 2.27042 | 2304 ft | 188 kts | 245° |
| 2026-05-05 11:50 | 41.35839 | 2.25540 | 2368 ft | 184 kts | 240° |
| 2026-05-05 11:50 | 41.35258 | 2.24056 | 2184 ft | 178 kts | 244° |
| 2026-05-05 11:51 | 41.34751 | 2.22585 | 2007 ft | 173 kts | 245° |
| 2026-05-05 11:51 | 41.34280 | 2.21200 | 1796 ft | 156 kts | 244° |
| 2026-05-05 11:51 | 41.33838 | 2.19909 | 1588 ft | 149 kts | 244° |
| 2026-05-05 11:51 | 41.33426 | 2.18707 | 1399 ft | 141 kts | 243° |
| 2026-05-05 11:52 | 41.33027 | 2.17540 | 1201 ft | 136 kts | 243° |
| 2026-05-05 11:52 | 41.32633 | 2.16386 | 1024 ft | 138 kts | 244° |
| 2026-05-05 11:52 | 41.32235 | 2.15222 | 830 ft | 139 kts | 244° |
| 2026-05-05 11:52 | 41.31831 | 2.14042 | 641 ft | 141 kts | 244° |
| 2026-05-05 11:53 | 41.31422 | 2.12846 | 449 ft | 142 kts | 244° |
| 2026-05-05 11:53 | 41.31013 | 2.11649 | 260 ft | 143 kts | 244° |
| 2026-05-05 11:53 | 41.30599 | 2.10441 | 60 ft | 143 kts | 245° |
| 2026-05-05 11:53 | 41.30220 | 2.09340 | 21 ft | 113 kts | 245° |
| 2026-05-05 11:54 | 41.30039 | 2.08797 | 27 ft | 31 kts | 261° |
| 2026-05-05 11:54 | 41.30052 | 2.08621 | 27 ft | 16 kts | 295° |
| 2026-05-05 11:54 | 41.30112 | 2.08507 | 21 ft | 8 kts | 316° |
| 2026-05-05 11:54 | 41.30137 | 2.08441 | 22 ft | 9 kts | 269° |
| 2026-05-05 11:55 | 41.30124 | 2.08348 | 23 ft | 12 kts | 254° |
| 2026-05-05 11:55 | 41.30114 | 2.08257 | 23 ft | 11 kts | 283° |
| 2026-05-05 11:55 | 41.30174 | 2.08184 | 20 ft | 10 kts | 313° |
| 2026-05-05 11:55 | 41.30169 | 2.08092 | 24 ft | 12 kts | 250° |
| 2026-05-05 11:56 | 41.30164 | 2.07988 | 22 ft | 12 kts | 300° |
| 2026-05-05 11:56 | 41.30209 | 2.07974 | 22 ft | 6 kts | 14° |
| 2026-05-05 11:56 | 41.30226 | 2.07980 | 27 ft | 0 kts | 14° |